createdAt,value
2018-05-02T00:00:35.759Z,7.90
2018-05-02T00:03:04.043Z,7.30
2018-05-02T00:05:32.445Z,6.97
2018-05-02T00:07:59.949Z,6.30
2018-05-02T00:10:27.468Z,5.43
2018-05-02T00:12:55.020Z,8.43
2018-05-02T00:15:22.525Z,7.10
2018-05-02T00:17:50.055Z,7.33
2018-05-02T00:20:17.592Z,9.30
2018-05-02T00:22:45.093Z,6.43
2018-05-02T00:25:12.603Z,8.03
2018-05-02T00:27:40.181Z,6.57
2018-05-02T00:30:07.695Z,14.73
2018-05-02T00:32:35.974Z,6.17
2018-05-02T00:35:04.282Z,5.07
2018-05-02T00:37:31.797Z,5.87
2018-05-02T00:40:00.067Z,5.20
2018-05-02T00:42:28.378Z,8.67
2018-05-02T00:44:55.943Z,7.37
2018-05-02T00:47:23.493Z,9.07
2018-05-02T00:49:51.044Z,7.50
2018-05-02T00:52:18.573Z,4.97
2018-05-02T00:54:46.093Z,5.70
2018-05-02T00:57:13.635Z,9.17
2018-05-02T00:59:41.136Z,7.37
2018-05-02T01:02:08.643Z,7.83
2018-05-02T01:04:36.211Z,11.53
2018-05-02T01:07:03.716Z,8.47
2018-05-02T01:09:31.251Z,9.43
2018-05-02T01:11:58.787Z,5.60
2018-05-02T01:14:26.317Z,9.10
2018-05-02T01:16:53.847Z,11.10
2018-05-02T01:19:21.477Z,5.87
2018-05-02T01:21:49.030Z,6.50
2018-05-02T01:24:16.584Z,9.63
2018-05-02T01:26:44.242Z,5.53
2018-05-02T01:29:11.747Z,8.70
2018-05-02T01:31:39.266Z,6.13
2018-05-02T01:34:06.809Z,13.00
2018-05-02T01:36:34.318Z,9.77
2018-05-02T01:39:01.839Z,6.47
2018-05-02T01:41:29.395Z,9.33
2018-05-02T01:43:56.915Z,9.47
2018-05-02T01:46:24.432Z,9.47
2018-05-02T01:49:03.648Z,6.67
2018-05-02T01:51:31.157Z,12.77
2018-05-02T01:53:59.457Z,10.53
2018-05-02T01:56:26.993Z,11.67
2018-05-02T01:58:55.274Z,12.10
2018-05-02T02:01:22.786Z,9.93
2018-05-02T02:03:50.339Z,8.73
2018-05-02T02:06:17.880Z,10.83
2018-05-02T02:08:45.403Z,14.60
2018-05-02T02:11:13.727Z,8.90
2018-05-02T02:13:41.251Z,7.93
2018-05-02T02:16:08.770Z,10.10
2018-05-02T02:18:36.316Z,16.30
2018-05-02T02:21:03.829Z,10.53
2018-05-02T02:23:31.329Z,9.53
2018-05-02T02:25:58.887Z,11.07
2018-05-02T02:28:26.421Z,12.93
2018-05-02T02:30:53.940Z,9.90
2018-05-02T02:33:22.246Z,8.17
2018-05-02T02:35:49.749Z,14.97
2018-05-02T02:38:17.281Z,9.07
2018-05-02T02:40:44.824Z,11.83
2018-05-02T02:43:12.379Z,12.87
2018-05-02T02:45:39.950Z,16.47
2018-05-02T02:48:07.495Z,11.37
2018-05-02T02:50:35.008Z,12.80
2018-05-02T02:53:02.517Z,11.97
2018-05-02T02:55:30.065Z,13.33
2018-05-02T02:57:57.633Z,12.43
2018-05-02T03:00:25.174Z,14.00
2018-05-02T03:02:52.728Z,16.47
2018-05-02T03:05:20.246Z,15.33
2018-05-02T03:07:47.776Z,18.70
2018-05-02T03:10:15.316Z,14.33
2018-05-02T03:12:42.821Z,15.53
2018-05-02T03:15:10.327Z,20.83
2018-05-02T03:17:37.872Z,16.53
2018-05-02T03:20:05.393Z,12.53
2018-05-02T03:22:32.915Z,16.80
2018-05-02T03:25:00.459Z,14.07
2018-05-02T03:27:28.495Z,15.07
2018-05-02T03:29:56.022Z,14.23
2018-05-02T03:32:23.566Z,14.27
2018-05-02T03:34:51.077Z,20.90
2018-05-02T03:37:19.367Z,14.00
2018-05-02T03:39:46.912Z,19.87
2018-05-02T03:42:15.181Z,19.27
2018-05-02T03:44:43.490Z,13.93
2018-05-02T03:47:11.059Z,20.10
2018-05-02T03:49:38.585Z,15.10
2018-05-02T03:52:06.110Z,16.30
2018-05-02T03:54:33.669Z,18.07
2018-05-02T03:57:01.187Z,21.97
2018-05-02T03:59:40.582Z,20.07
2018-05-02T04:02:20.600Z,19.40
2018-05-02T04:04:59.858Z,25.93
2018-05-02T04:07:27.362Z,19.53
2018-05-02T04:09:54.879Z,18.63
2018-05-02T04:12:23.195Z,21.90
2018-05-02T04:14:50.717Z,18.70
2018-05-02T04:17:19.019Z,15.17
2018-05-02T04:19:46.567Z,17.07
2018-05-02T04:22:14.150Z,19.37
2018-05-02T04:24:41.712Z,17.23
2018-05-02T04:27:10.395Z,18.00
2018-05-02T04:29:38.064Z,18.90
2018-05-02T04:32:05.592Z,19.40
2018-05-02T04:34:33.157Z,19.80
2018-05-02T04:37:00.684Z,22.37
2018-05-02T04:39:30.775Z,19.37
2018-05-02T04:41:58.323Z,20.43
2018-05-02T04:44:25.861Z,22.77
2018-05-02T04:46:53.429Z,23.10
2018-05-02T04:49:21.074Z,22.90
2018-05-02T04:51:48.586Z,18.50
2018-05-02T04:54:16.194Z,19.37
2018-05-02T04:56:43.742Z,18.30
2018-05-02T04:59:11.321Z,18.30
2018-05-02T05:01:38.872Z,18.80
2018-05-02T05:04:06.426Z,19.80
2018-05-02T05:06:33.997Z,20.90
2018-05-02T05:09:01.505Z,24.53
2018-05-02T05:11:29.814Z,21.23
2018-05-02T05:13:57.343Z,19.67
2018-05-02T05:16:25.629Z,25.83
2018-05-02T05:18:54.037Z,23.13
2018-05-02T05:21:21.558Z,23.90
2018-05-02T05:23:49.866Z,19.00
2018-05-02T05:26:17.432Z,24.20
2018-05-02T05:28:44.987Z,20.00
2018-05-02T05:31:12.508Z,33.47
2018-05-02T05:33:40.820Z,20.47
2018-05-02T05:36:08.344Z,18.63
2018-05-02T05:38:36.667Z,19.53
2018-05-02T05:41:04.328Z,23.50
2018-05-02T05:43:31.944Z,21.43
2018-05-02T05:45:59.416Z,20.80
2018-05-02T05:48:26.967Z,24.67
2018-05-02T05:50:54.481Z,21.13
2018-05-02T05:53:21.994Z,25.90
2018-05-02T05:55:49.548Z,19.83
2018-05-02T05:58:17.140Z,19.70
2018-05-02T06:00:44.698Z,21.13
2018-05-02T06:03:12.352Z,17.17
2018-05-02T06:05:39.887Z,18.33
2018-05-02T06:08:07.394Z,20.77
2018-05-02T06:10:34.947Z,21.43
2018-05-02T06:13:02.477Z,21.83
2018-05-02T06:15:30.025Z,18.90
2018-05-02T06:17:57.580Z,29.60
2018-05-02T06:20:25.150Z,21.90
2018-05-02T06:22:53.604Z,21.17
2018-05-02T06:25:22.007Z,22.73
2018-05-02T06:27:49.527Z,17.37
2018-05-02T06:30:17.811Z,17.90
2018-05-02T06:32:45.383Z,17.10
2018-05-02T06:35:12.909Z,16.47
2018-05-02T06:37:40.533Z,18.27
2018-05-02T06:40:07.999Z,18.90
2018-05-02T06:42:35.521Z,28.30
2018-05-02T06:45:03.044Z,15.77
2018-05-02T06:47:30.650Z,16.20
2018-05-02T06:49:58.161Z,18.10
2018-05-02T06:52:25.679Z,17.70
2018-05-02T06:54:53.225Z,17.60
2018-05-02T06:57:20.758Z,19.90
2018-05-02T06:59:49.046Z,14.53
2018-05-02T07:02:16.606Z,24.13
2018-05-02T07:04:44.130Z,16.30
2018-05-02T07:07:11.659Z,11.90
2018-05-02T07:09:39.223Z,16.67
2018-05-02T07:12:06.753Z,14.40
2018-05-02T07:14:34.261Z,16.40
2018-05-02T07:17:02.095Z,16.27
2018-05-02T07:19:29.632Z,17.67
2018-05-02T07:21:57.195Z,17.57
2018-05-02T07:24:24.860Z,21.60
2018-05-02T07:26:52.397Z,16.40
2018-05-02T07:29:19.967Z,12.63
2018-05-02T07:31:47.529Z,13.03
2018-05-02T07:34:15.094Z,16.40
2018-05-02T07:36:42.643Z,13.20
2018-05-02T07:39:10.277Z,18.10
2018-05-02T07:41:38.599Z,14.17
2018-05-02T07:44:06.136Z,13.90
2018-05-02T07:46:33.699Z,17.90
2018-05-02T07:49:01.246Z,14.50
2018-05-02T07:51:28.771Z,12.53
2018-05-02T07:53:57.095Z,9.40
2018-05-02T07:56:24.671Z,12.10
2018-05-02T07:58:52.176Z,14.53
2018-05-02T08:01:20.495Z,11.37
2018-05-02T08:03:48.029Z,14.13
2018-05-02T08:06:15.560Z,10.27
2018-05-02T08:08:43.875Z,8.80
2018-05-02T08:11:11.390Z,7.20
2018-05-02T08:13:39.669Z,8.73
2018-05-02T08:16:07.975Z,6.63
2018-05-02T08:18:35.500Z,7.83
2018-05-02T08:21:03.806Z,9.70
2018-05-02T08:23:31.325Z,9.60
2018-05-02T08:25:58.853Z,6.70
2018-05-02T08:28:26.459Z,6.73
2018-05-02T08:30:53.935Z,5.90
2018-05-02T08:33:21.473Z,5.60
2018-05-02T08:35:49.759Z,41.17
2018-05-02T08:38:18.044Z,6.17
2018-05-02T08:40:45.575Z,7.97
2018-05-02T08:43:13.853Z,8.77
2018-05-02T08:45:42.155Z,4.90
2018-05-02T08:48:09.665Z,7.10
2018-05-02T08:50:37.172Z,8.00
2018-05-02T08:53:04.705Z,6.40
2018-05-02T08:55:33.017Z,10.27
2018-05-02T08:58:00.564Z,5.63
2018-05-02T09:00:28.073Z,7.90
2018-05-02T09:02:55.647Z,14.23
2018-05-02T09:05:23.193Z,4.30
2018-05-02T09:07:52.341Z,4.20
2018-05-02T09:10:19.916Z,4.73
2018-05-02T09:12:47.425Z,4.33
2018-05-02T09:15:15.735Z,4.03
2018-05-02T09:17:43.312Z,4.80
2018-05-02T09:20:10.837Z,4.20
2018-05-02T09:22:38.386Z,6.40
2018-05-02T09:25:06.704Z,6.93
2018-05-02T09:27:34.259Z,4.17
2018-05-02T09:30:01.909Z,4.87
2018-05-02T09:32:29.437Z,7.93
2018-05-02T09:34:57.729Z,6.80
2018-05-02T09:37:25.246Z,4.90
2018-05-02T09:39:54.279Z,3.77
2018-05-02T09:42:21.865Z,6.83
2018-05-02T09:44:49.389Z,10.93
2018-05-02T09:47:17.703Z,8.33
2018-05-02T09:49:45.226Z,4.67
2018-05-02T09:52:12.742Z,3.70
2018-05-02T09:54:40.381Z,3.40
2018-05-02T09:57:07.899Z,4.40
2018-05-02T09:59:36.301Z,2.90
2018-05-02T10:02:03.824Z,3.33
2018-05-02T10:04:32.154Z,3.80
2018-05-02T10:07:00.438Z,6.30
2018-05-02T10:09:28.078Z,4.80
2018-05-02T10:11:55.634Z,4.23
2018-05-02T10:14:23.150Z,5.20
2018-05-02T10:16:51.453Z,4.17
2018-05-02T10:19:18.990Z,6.77
2018-05-02T10:21:47.263Z,4.13
2018-05-02T10:24:15.684Z,3.10
2018-05-02T10:26:43.211Z,4.30
2018-05-02T10:29:10.740Z,4.90
2018-05-02T10:31:39.787Z,9.13
2018-05-02T10:34:07.307Z,6.10
2018-05-02T10:36:35.730Z,5.03
2018-05-02T10:39:03.259Z,4.53
2018-05-02T10:41:30.783Z,3.50
2018-05-02T10:43:59.124Z,4.27
2018-05-02T10:46:26.688Z,2.73
2018-05-02T10:48:54.336Z,5.83
2018-05-02T10:51:21.863Z,5.03
2018-05-02T10:53:50.141Z,4.03
2018-05-02T10:56:18.445Z,4.50
2018-05-02T10:58:45.957Z,3.37
2018-05-02T11:01:14.265Z,3.10
2018-05-02T11:03:41.777Z,6.13
2018-05-02T11:06:09.293Z,6.17
2018-05-02T11:08:36.836Z,4.83
2018-05-02T11:11:04.344Z,3.50
2018-05-02T11:13:31.894Z,5.07
2018-05-02T11:15:59.415Z,7.53
2018-05-02T11:18:26.940Z,6.97
2018-05-02T11:20:55.252Z,3.73
2018-05-02T11:23:22.773Z,12.10
2018-05-02T11:25:50.366Z,4.23
2018-05-02T11:28:17.902Z,4.40
2018-05-02T11:30:46.351Z,5.73
2018-05-02T11:33:13.876Z,5.77
2018-05-02T11:35:41.398Z,7.90
2018-05-02T11:38:09.726Z,4.53
2018-05-02T11:40:37.351Z,3.63
2018-05-02T11:43:04.814Z,4.63
2018-05-02T11:45:32.345Z,7.30
2018-05-02T11:48:00.627Z,3.57
2018-05-02T11:50:28.943Z,3.87
2018-05-02T11:52:56.468Z,5.10
2018-05-02T11:55:23.982Z,5.23
2018-05-02T11:57:51.550Z,4.77
2018-05-02T12:00:19.066Z,6.10
2018-05-02T12:02:46.655Z,3.70
2018-05-02T12:05:14.192Z,3.97
2018-05-02T12:07:41.704Z,2.67
2018-05-02T12:10:10.014Z,9.70
2018-05-02T12:12:37.520Z,5.83
2018-05-02T12:15:05.143Z,7.33
2018-05-02T12:17:32.653Z,3.60
2018-05-02T12:20:00.965Z,6.00
2018-05-02T12:22:28.522Z,9.73
2018-05-02T12:24:56.049Z,5.03
2018-05-02T12:27:24.358Z,3.73
2018-05-02T12:29:51.931Z,3.30
2018-05-02T12:32:19.450Z,8.33
2018-05-02T12:34:46.993Z,5.83
2018-05-02T12:37:15.292Z,6.40
2018-05-02T12:39:42.956Z,4.37
2018-05-02T12:42:10.479Z,16.00
2018-05-02T12:44:38.773Z,6.63
2018-05-02T12:47:07.090Z,11.50
2018-05-02T12:49:34.753Z,5.90
2018-05-02T12:52:02.303Z,6.43
2018-05-02T12:54:31.606Z,4.27
2018-05-02T12:56:59.144Z,5.87
2018-05-02T12:59:26.682Z,4.70
2018-05-02T13:01:54.979Z,5.37
2018-05-02T13:04:22.547Z,7.47
2018-05-02T13:06:50.082Z,7.37
2018-05-02T13:09:18.373Z,6.77
2018-05-02T13:11:45.924Z,5.67
2018-05-02T13:14:13.467Z,9.63
2018-05-02T13:16:41.766Z,4.30
2018-05-02T13:19:09.346Z,6.90
2018-05-02T13:21:36.891Z,13.47
2018-05-02T13:24:04.454Z,7.43
2018-05-02T13:26:31.979Z,5.93
2018-05-02T13:29:00.311Z,7.90
2018-05-02T13:31:27.877Z,13.53
2018-05-02T13:33:55.501Z,6.17
2018-05-02T13:36:23.073Z,8.50
2018-05-02T13:38:50.595Z,3.37
2018-05-02T13:41:18.916Z,6.73
2018-05-02T13:43:46.440Z,7.07
2018-05-02T13:46:13.974Z,7.07
2018-05-02T13:48:42.275Z,6.50
2018-05-02T13:51:09.794Z,10.13
2018-05-02T13:53:37.343Z,6.07
2018-05-02T13:56:04.852Z,3.57
2018-05-02T13:58:32.429Z,6.37
2018-05-02T14:01:00.005Z,4.17
2018-05-02T14:03:27.508Z,4.17
2018-05-02T14:05:55.813Z,8.87
2018-05-02T14:08:23.390Z,6.40
2018-05-02T14:10:50.940Z,10.40
2018-05-02T14:13:18.495Z,6.80
2018-05-02T14:15:46.009Z,7.90
2018-05-02T14:18:14.298Z,6.17
2018-05-02T14:20:42.711Z,8.33
2018-05-02T14:23:10.227Z,5.20
2018-05-02T14:25:38.530Z,6.30
2018-05-02T14:28:06.064Z,9.33
2018-05-02T14:30:35.276Z,7.13
2018-05-02T14:33:02.790Z,6.23
2018-05-02T14:35:31.122Z,10.90
2018-05-02T14:37:58.656Z,6.67
2018-05-02T14:40:26.929Z,9.20
2018-05-02T14:42:55.260Z,4.23
2018-05-02T14:45:22.867Z,7.77
2018-05-02T14:47:50.322Z,5.10
2018-05-02T14:50:18.639Z,6.50
2018-05-02T14:52:46.208Z,5.40
2018-05-02T14:55:13.724Z,6.77
2018-05-02T14:57:42.036Z,6.63
2018-05-02T15:00:09.558Z,6.97
2018-05-02T15:02:37.826Z,5.10
2018-05-02T15:05:06.334Z,5.63
2018-05-02T15:07:33.860Z,11.03
2018-05-02T15:10:02.165Z,4.27
2018-05-02T15:12:29.732Z,5.90
2018-05-02T15:14:57.262Z,5.97
2018-05-02T15:17:25.568Z,8.63
2018-05-02T15:19:53.221Z,9.90
2018-05-02T15:22:20.752Z,5.73
2018-05-02T15:24:49.038Z,6.10
2018-05-02T15:27:16.592Z,5.70
2018-05-02T15:29:44.881Z,4.17
2018-05-02T15:32:12.464Z,7.33
2018-05-02T15:34:40.123Z,5.13
2018-05-02T15:37:07.658Z,4.07
2018-05-02T15:39:35.179Z,5.67
2018-05-02T15:42:02.781Z,6.63
2018-05-02T15:44:30.358Z,5.33
2018-05-02T15:46:57.909Z,5.53
2018-05-02T15:49:25.453Z,4.20
2018-05-02T15:51:52.980Z,14.63
2018-05-02T15:54:21.257Z,8.23
2018-05-02T15:56:49.567Z,3.53
2018-05-02T15:59:17.119Z,7.97
2018-05-02T16:01:44.639Z,7.77
2018-05-02T16:04:12.259Z,6.60
2018-05-02T16:06:39.801Z,5.60
2018-05-02T16:09:07.368Z,7.00
2018-05-02T16:11:34.927Z,6.10
2018-05-02T16:14:02.473Z,4.63
2018-05-02T16:16:30.247Z,6.60
2018-05-02T16:18:57.706Z,5.80
2018-05-02T16:21:25.236Z,7.40
2018-05-02T16:23:53.541Z,4.07
2018-05-02T16:26:21.049Z,9.33
2018-05-02T16:28:48.561Z,7.63
2018-05-02T16:31:16.109Z,6.77
2018-05-02T16:33:43.689Z,4.00
2018-05-02T16:36:11.329Z,5.53
2018-05-02T16:38:38.888Z,2.90
2018-05-02T16:41:06.418Z,5.07
2018-05-02T16:43:34.837Z,9.07
2018-05-02T16:46:02.606Z,5.80
2018-05-02T16:48:30.200Z,6.43
2018-05-02T16:50:58.478Z,6.77
2018-05-02T16:53:26.765Z,6.67
2018-05-02T16:55:55.075Z,11.77
2018-05-02T16:58:22.591Z,5.07
2018-05-02T17:00:50.915Z,6.53
2018-05-02T17:03:18.482Z,4.23
2018-05-02T17:05:46.012Z,10.40
2018-05-02T17:08:13.538Z,4.40
2018-05-02T17:10:41.168Z,9.93
2018-05-02T17:13:08.837Z,7.17
2018-05-02T17:15:36.348Z,4.97
2018-05-02T17:18:03.872Z,6.63
2018-05-02T17:20:32.196Z,6.10
2018-05-02T17:22:59.751Z,6.17
2018-05-02T17:25:27.343Z,4.80
2018-05-02T17:27:54.992Z,6.67
2018-05-02T17:30:22.515Z,5.00
2018-05-02T17:32:50.039Z,5.53
2018-05-02T17:35:17.593Z,6.67
2018-05-02T17:37:45.097Z,6.30
2018-05-02T17:40:12.623Z,5.57
2018-05-02T17:42:40.957Z,7.47
2018-05-02T17:45:08.487Z,6.93
2018-05-02T17:47:36.086Z,5.80
2018-05-02T17:50:05.187Z,4.77
2018-05-02T17:52:32.722Z,6.53
2018-05-02T17:55:00.246Z,10.70
2018-05-02T17:57:28.578Z,5.77
2018-05-02T17:59:56.141Z,9.60
2018-05-02T18:02:23.659Z,9.43
2018-05-02T18:04:51.215Z,7.60
2018-05-02T18:07:18.774Z,5.80
2018-05-02T18:09:46.285Z,6.03
2018-05-02T18:12:13.908Z,9.50
2018-05-02T18:14:41.431Z,4.57
2018-05-02T18:17:09.750Z,8.13
2018-05-02T18:19:37.455Z,5.50
2018-05-02T18:22:05.752Z,8.40
2018-05-02T18:24:33.285Z,8.47
2018-05-02T18:27:00.919Z,5.13
2018-05-02T18:29:28.452Z,4.17
2018-05-02T18:31:55.987Z,15.07
2018-05-02T18:34:23.588Z,6.50
2018-05-02T18:36:51.225Z,5.17
2018-05-02T18:39:18.735Z,5.40
2018-05-02T18:41:46.353Z,4.53
2018-05-02T18:44:13.906Z,4.03
2018-05-02T18:46:41.478Z,7.43
2018-05-02T18:49:09.026Z,9.50
2018-05-02T18:51:36.613Z,7.70
2018-05-02T18:54:04.153Z,4.93
2018-05-02T18:56:31.807Z,6.27
2018-05-02T18:58:59.342Z,6.50
2018-05-02T19:01:26.881Z,7.37
2018-05-02T19:03:55.976Z,7.53
2018-05-02T19:06:23.510Z,6.50
2018-05-02T19:08:51.042Z,11.97
2018-05-02T19:11:18.697Z,7.07
2018-05-02T19:13:51.924Z,11.10
2018-05-02T19:16:19.519Z,4.57
2018-05-02T19:18:52.891Z,10.53
2018-05-02T19:21:21.211Z,6.10
2018-05-02T19:23:48.802Z,5.63
2018-05-02T19:26:22.036Z,10.53
2018-05-02T19:28:50.314Z,6.77
2018-05-02T19:31:23.422Z,5.50
2018-05-02T19:33:53.043Z,5.90
2018-05-02T19:36:20.608Z,6.50
2018-05-02T19:38:48.163Z,9.60
2018-05-02T19:41:21.210Z,9.43
2018-05-02T19:43:55.053Z,8.13
2018-05-02T19:46:22.704Z,11.60
2018-05-02T19:48:50.235Z,9.33
2018-05-02T19:51:24.429Z,9.30
2018-05-02T19:53:51.955Z,11.93
2018-05-02T19:56:20.106Z,7.87
2018-05-02T19:58:47.662Z,7.20
2018-05-02T20:01:20.968Z,9.43
2018-05-02T20:03:48.505Z,6.47
2018-05-02T20:06:16.092Z,7.43
2018-05-02T20:08:49.402Z,10.30
2018-05-02T20:11:22.607Z,10.87
2018-05-02T20:13:55.812Z,9.33
2018-05-02T20:16:24.122Z,12.00
2018-05-02T20:18:51.702Z,9.87
2018-05-02T20:21:19.249Z,10.27
2018-05-02T20:23:46.782Z,10.20
2018-05-02T20:26:14.311Z,12.60
2018-05-02T20:28:41.919Z,7.77
2018-05-02T20:31:09.487Z,8.80
2018-05-02T20:33:37.047Z,8.73
2018-05-02T20:36:04.607Z,10.47
2018-05-02T20:38:32.128Z,7.10
2018-05-02T20:41:00.432Z,7.20
2018-05-02T20:43:28.828Z,13.53
2018-05-02T20:45:56.396Z,8.50
2018-05-02T20:48:23.935Z,7.17
2018-05-02T20:50:51.489Z,12.20
2018-05-02T20:53:19.039Z,8.10
2018-05-02T20:55:46.566Z,11.03
2018-05-02T20:58:14.901Z,10.70
2018-05-02T21:00:42.438Z,10.23
2018-05-02T21:03:10.017Z,8.97
2018-05-02T21:05:37.557Z,7.60
2018-05-02T21:08:05.085Z,15.13
2018-05-02T21:10:33.392Z,8.33
2018-05-02T21:13:00.939Z,9.37
2018-05-02T21:15:28.459Z,10.10
2018-05-02T21:17:55.980Z,12.60
2018-05-02T21:20:23.537Z,9.50
2018-05-02T21:22:51.044Z,8.20
2018-05-02T21:25:19.335Z,14.27
2018-05-02T21:27:46.993Z,6.33
2018-05-02T21:30:14.532Z,9.97
2018-05-02T21:32:42.839Z,6.93
2018-05-02T21:35:10.405Z,5.57
2018-05-02T21:37:37.920Z,8.80
2018-05-02T21:40:05.438Z,9.90
2018-05-02T21:42:33.843Z,7.60
2018-05-02T21:45:02.126Z,9.17
2018-05-02T21:47:29.654Z,7.10
2018-05-02T21:49:57.206Z,6.73
2018-05-02T21:52:24.731Z,10.73
2018-05-02T21:54:52.245Z,9.43
2018-05-02T21:57:19.799Z,6.30
2018-05-02T21:59:47.338Z,7.67
2018-05-02T22:02:14.876Z,7.07
2018-05-02T22:04:42.421Z,8.70
2018-05-02T22:07:09.930Z,6.03
2018-05-02T22:09:37.497Z,4.50
2018-05-02T22:12:06.577Z,7.63
2018-05-02T22:14:35.057Z,7.50
2018-05-02T22:17:03.154Z,6.80
2018-05-02T22:19:30.719Z,8.73
2018-05-02T22:21:59.003Z,4.67
2018-05-02T22:24:27.291Z,7.30
2018-05-02T22:26:55.687Z,3.97
2018-05-02T22:29:23.215Z,5.23
2018-05-02T22:31:51.544Z,14.17
2018-05-02T22:34:19.087Z,4.07
2018-05-02T22:36:46.594Z,7.13
2018-05-02T22:39:14.111Z,4.30
2018-05-02T22:41:41.989Z,6.40
2018-05-02T22:44:09.510Z,12.47
2018-05-02T22:46:37.021Z,4.90
2018-05-02T22:49:04.579Z,5.50
2018-05-02T22:51:32.108Z,6.43
2018-05-02T22:53:59.635Z,5.20
2018-05-02T22:56:27.190Z,3.40
2018-05-02T22:58:54.722Z,3.80
2018-05-02T23:01:23.022Z,3.73
2018-05-02T23:03:51.419Z,4.37
2018-05-02T23:06:18.933Z,5.30
2018-05-02T23:08:47.953Z,3.90
2018-05-02T23:11:16.354Z,6.83
2018-05-02T23:13:43.914Z,8.53
2018-05-02T23:16:11.483Z,5.63
2018-05-02T23:18:39.036Z,6.40
2018-05-02T23:21:06.555Z,7.43
2018-05-02T23:23:34.843Z,5.03
2018-05-02T23:26:03.239Z,7.10
2018-05-02T23:28:30.764Z,5.30
2018-05-02T23:30:59.074Z,10.47
2018-05-02T23:33:26.643Z,8.60
2018-05-02T23:35:54.197Z,6.53
2018-05-02T23:38:21.756Z,9.50
2018-05-02T23:40:49.304Z,5.37
2018-05-02T23:43:16.809Z,6.67
2018-05-02T23:45:44.343Z,8.73
2018-05-02T23:48:11.900Z,9.13
2018-05-02T23:50:39.424Z,7.73
2018-05-02T23:53:06.962Z,8.10
2018-05-02T23:55:35.268Z,11.27
2018-05-02T23:58:02.775Z,11.17
